createdAt,value
2022-10-13T00:01:10.767Z,12.70
2022-10-13T00:03:40.208Z,11.07
2022-10-13T00:06:10.203Z,13.87
2022-10-13T00:08:39.115Z,18.47
2022-10-13T00:11:13.732Z,10.57
2022-10-13T00:13:42.265Z,10.07
2022-10-13T00:16:11.460Z,7.37
2022-10-13T00:18:39.741Z,11.60
2022-10-13T00:21:09.039Z,9.53
2022-10-13T00:23:37.338Z,8.53
2022-10-13T00:26:06.875Z,14.93
2022-10-13T00:28:36.748Z,14.37
2022-10-13T00:31:04.924Z,9.67
2022-10-13T00:33:32.826Z,9.07
2022-10-13T00:36:00.674Z,12.63
2022-10-13T00:38:28.531Z,11.57
2022-10-13T00:40:57.716Z,13.23
2022-10-13T00:43:27.995Z,11.87
2022-10-13T00:45:57.217Z,11.53
2022-10-13T00:48:28.239Z,12.17
2022-10-13T00:50:57.500Z,9.47
2022-10-13T00:53:30.253Z,11.33
2022-10-13T00:55:58.405Z,9.20
2022-10-13T00:58:31.725Z,13.30
2022-10-13T01:01:01.089Z,10.63
2022-10-13T01:03:29.385Z,13.63
2022-10-13T01:06:00.348Z,10.47
2022-10-13T01:08:29.932Z,11.27
2022-10-13T01:11:07.728Z,14.63
2022-10-13T01:13:41.866Z,11.63
2022-10-13T01:16:18.015Z,13.20
2022-10-13T01:18:52.578Z,13.03
2022-10-13T01:21:27.335Z,12.07
2022-10-13T01:24:30.831Z,10.87
2022-10-13T01:27:36.228Z,9.10
2022-10-13T01:30:19.539Z,12.43
2022-10-13T01:33:15.066Z,11.30
2022-10-13T01:35:52.471Z,10.93
2022-10-13T01:38:30.386Z,12.83
2022-10-13T01:41:04.648Z,13.10
2022-10-13T01:43:38.204Z,10.50
2022-10-13T01:46:11.013Z,12.93
2022-10-13T01:48:41.099Z,9.90
2022-10-13T01:51:13.391Z,8.77
2022-10-13T01:53:42.324Z,14.00
2022-10-13T01:56:10.311Z,9.80
2022-10-13T01:58:39.056Z,10.77
2022-10-13T02:01:37.431Z,13.40
2022-10-13T02:04:19.425Z,11.63
2022-10-13T02:06:52.828Z,11.03
2022-10-13T02:09:27.797Z,11.37
2022-10-13T02:12:01.366Z,11.57
2022-10-13T02:14:30.944Z,10.63
2022-10-13T02:17:03.604Z,11.93
2022-10-13T02:19:34.214Z,13.37
2022-10-13T02:22:02.666Z,14.53
2022-10-13T02:24:30.565Z,9.93
2022-10-13T02:26:58.966Z,12.33
2022-10-13T02:29:27.052Z,12.63
2022-10-13T02:31:54.946Z,10.03
2022-10-13T02:34:24.477Z,13.53
2022-10-13T02:36:52.338Z,13.70
2022-10-13T02:39:20.201Z,14.10
2022-10-13T02:41:48.096Z,9.83
2022-10-13T02:44:15.969Z,13.13
2022-10-13T02:46:43.837Z,10.77
2022-10-13T02:49:12.127Z,9.80
2022-10-13T02:51:41.363Z,17.07
2022-10-13T02:54:09.470Z,12.90
2022-10-13T02:56:37.465Z,14.27
2022-10-13T02:59:05.548Z,9.23
2022-10-13T03:01:33.676Z,11.70
2022-10-13T03:04:01.532Z,18.17
2022-10-13T03:06:29.391Z,12.50
2022-10-13T03:08:59.205Z,8.57
2022-10-13T03:11:27.240Z,12.67
2022-10-13T03:13:55.211Z,12.23
2022-10-13T03:16:23.269Z,9.33
2022-10-13T03:18:53.170Z,11.70
2022-10-13T03:21:21.074Z,13.63
2022-10-13T03:23:49.404Z,12.83
2022-10-13T03:26:18.856Z,10.67
2022-10-13T03:28:50.177Z,14.77
2022-10-13T03:31:18.856Z,11.87
2022-10-13T03:33:47.003Z,15.13
2022-10-13T03:36:15.033Z,13.43
2022-10-13T03:38:42.963Z,11.97
2022-10-13T03:41:12.650Z,12.73
2022-10-13T03:43:42.672Z,13.23
2022-10-13T03:46:13.593Z,14.63
2022-10-13T03:48:41.526Z,12.37
2022-10-13T03:51:11.162Z,18.63
2022-10-13T03:53:39.231Z,14.13
2022-10-13T03:56:07.885Z,14.43
2022-10-13T03:58:36.069Z,13.10
2022-10-13T04:01:06.506Z,9.70
2022-10-13T04:03:35.070Z,11.53
2022-10-13T04:06:03.516Z,17.47
2022-10-13T04:08:32.158Z,10.37
2022-10-13T04:11:01.025Z,15.37
2022-10-13T04:13:29.003Z,10.90
2022-10-13T04:15:56.938Z,10.73
2022-10-13T04:18:26.152Z,12.10
2022-10-13T04:20:54.006Z,13.33
2022-10-13T04:23:21.922Z,13.63
2022-10-13T04:25:49.776Z,17.17
2022-10-13T04:28:18.557Z,12.87
2022-10-13T04:30:49.414Z,12.63
2022-10-13T04:33:17.719Z,10.03
2022-10-13T04:35:46.959Z,12.63
2022-10-13T04:38:14.889Z,13.73
2022-10-13T04:40:42.714Z,11.57
2022-10-13T04:43:10.547Z,14.97
2022-10-13T04:45:38.388Z,12.90
2022-10-13T04:48:06.536Z,13.27
2022-10-13T04:50:34.411Z,13.87
2022-10-13T04:53:03.609Z,10.20
2022-10-13T04:55:31.483Z,14.37
2022-10-13T04:57:59.341Z,14.70
2022-10-13T05:00:27.357Z,16.27
2022-10-13T05:02:55.246Z,14.77
2022-10-13T05:05:23.121Z,12.13
2022-10-13T05:07:50.971Z,15.20
2022-10-13T05:10:20.271Z,11.50
2022-10-13T05:12:48.124Z,11.13
2022-10-13T05:15:16.176Z,11.80
2022-10-13T05:17:44.071Z,11.93
2022-10-13T05:20:12.908Z,12.10
2022-10-13T05:22:40.749Z,11.47
2022-10-13T05:25:09.238Z,13.03
2022-10-13T05:27:38.509Z,10.63
2022-10-13T05:30:07.160Z,11.47
2022-10-13T05:32:36.319Z,12.20
2022-10-13T05:35:04.441Z,15.70
2022-10-13T05:37:32.291Z,11.87
2022-10-13T05:40:00.127Z,16.50
2022-10-13T05:42:30.451Z,18.43
2022-10-13T05:44:59.815Z,17.87
2022-10-13T05:47:28.303Z,12.63
2022-10-13T05:49:56.407Z,10.10
2022-10-13T05:52:26.480Z,12.90
2022-10-13T05:54:57.657Z,15.10
2022-10-13T05:57:29.754Z,11.23
2022-10-13T06:00:03.211Z,12.17
2022-10-13T06:02:37.762Z,12.77
2022-10-13T06:05:08.566Z,8.97
2022-10-13T06:07:36.446Z,16.73
2022-10-13T06:10:04.732Z,11.33
2022-10-13T06:12:32.561Z,20.30
2022-10-13T06:15:01.822Z,23.77
2022-10-13T06:17:29.684Z,14.40
2022-10-13T06:19:57.581Z,13.47
2022-10-13T06:22:25.515Z,18.63
2022-10-13T06:24:53.431Z,13.47
2022-10-13T06:27:21.250Z,13.37
2022-10-13T06:29:49.132Z,13.07
2022-10-13T06:32:18.782Z,12.97
2022-10-13T06:34:46.863Z,16.80
2022-10-13T06:37:14.732Z,12.43
2022-10-13T06:39:42.630Z,13.23
2022-10-13T06:42:10.702Z,11.43
2022-10-13T06:44:38.597Z,12.07
2022-10-13T06:47:06.718Z,15.20
2022-10-13T06:49:35.940Z,13.07
2022-10-13T06:52:04.740Z,11.97
2022-10-13T06:54:32.671Z,10.93
2022-10-13T06:57:00.559Z,11.90
2022-10-13T06:59:28.467Z,12.67
2022-10-13T07:01:56.450Z,11.43
2022-10-13T07:04:25.829Z,13.87
2022-10-13T07:06:57.205Z,12.13
2022-10-13T07:09:25.117Z,13.07
2022-10-13T07:11:53.064Z,15.10
2022-10-13T07:14:20.971Z,13.97
2022-10-13T07:16:49.155Z,10.03
2022-10-13T07:19:17.105Z,11.20
2022-10-13T07:21:44.982Z,11.97
2022-10-13T07:24:14.252Z,14.57
2022-10-13T07:26:42.412Z,17.93
2022-10-13T07:29:10.731Z,11.37
2022-10-13T07:31:38.782Z,12.23
2022-10-13T07:34:08.390Z,12.93
2022-10-13T07:36:37.186Z,12.37
2022-10-13T07:39:05.364Z,12.40
2022-10-13T07:41:34.826Z,15.30
2022-10-13T07:44:02.941Z,12.77
2022-10-13T07:46:30.801Z,14.43
2022-10-13T07:48:58.840Z,14.90
2022-10-13T07:51:26.815Z,12.47
2022-10-13T07:53:55.232Z,17.30
2022-10-13T07:56:23.195Z,11.27
2022-10-13T07:58:52.423Z,12.53
2022-10-13T08:01:20.393Z,15.73
2022-10-13T08:03:50.445Z,19.20
2022-10-13T08:06:18.771Z,14.17
2022-10-13T08:08:46.749Z,12.47
2022-10-13T08:11:17.229Z,12.40
2022-10-13T08:13:48.783Z,11.40
2022-10-13T08:16:18.274Z,12.30
2022-10-13T08:18:46.842Z,15.53
2022-10-13T08:24:06.070Z,11.53
2022-10-13T08:26:34.127Z,16.97
2022-10-13T08:29:20.242Z,12.87
2022-10-13T08:31:51.363Z,16.17
2022-10-13T08:34:19.504Z,17.27
2022-10-13T08:36:47.635Z,13.63
2022-10-13T08:39:15.793Z,12.83
2022-10-13T08:41:45.005Z,11.97
2022-10-13T08:47:18.406Z,14.63
2022-10-13T08:49:46.594Z,15.90
2022-10-13T08:52:20.786Z,13.70
2022-10-13T08:54:49.429Z,13.07
2022-10-13T08:57:17.615Z,12.10
2022-10-13T08:59:45.963Z,13.13
2022-10-13T09:02:22.553Z,13.17
2022-10-13T09:04:53.631Z,14.23
2022-10-13T09:07:25.645Z,16.83
2022-10-13T09:09:54.833Z,14.77
2022-10-13T09:12:25.115Z,15.77
2022-10-13T09:15:01.469Z,12.50
2022-10-13T09:17:33.101Z,12.87
2022-10-13T09:20:03.145Z,13.93
2022-10-13T09:22:33.833Z,11.83
2022-10-13T09:25:20.525Z,12.83
2022-10-13T09:27:51.547Z,14.70
2022-10-13T09:30:27.569Z,12.17
2022-10-13T09:33:15.585Z,15.30
2022-10-13T09:35:46.152Z,15.83
2022-10-13T09:38:16.609Z,20.37
2022-10-13T09:40:56.624Z,14.17
2022-10-13T09:43:31.101Z,15.43
2022-10-13T09:46:00.434Z,11.53
2022-10-13T09:48:31.741Z,14.83
2022-10-13T09:50:59.742Z,12.70
2022-10-13T09:53:32.268Z,11.77
2022-10-13T09:56:22.632Z,17.60
2022-10-13T09:58:56.326Z,13.23
2022-10-13T10:01:27.632Z,14.43
2022-10-13T10:03:58.785Z,18.80
2022-10-13T10:06:27.937Z,12.40
2022-10-13T10:09:03.762Z,13.67
2022-10-13T10:11:38.537Z,15.40
2022-10-13T10:14:18.071Z,20.47
2022-10-13T10:16:51.002Z,14.13
2022-10-13T10:19:25.817Z,14.80
2022-10-13T10:22:04.106Z,9.73
2022-10-13T10:24:39.540Z,14.00
2022-10-13T10:27:14.740Z,10.83
2022-10-13T10:29:50.974Z,12.13
2022-10-13T10:32:40.725Z,16.60
2022-10-13T10:35:18.840Z,11.97
2022-10-13T10:37:58.723Z,14.10
2022-10-13T10:40:36.442Z,12.67
2022-10-13T10:43:31.752Z,14.47
2022-10-13T10:46:01.173Z,14.73
2022-10-13T10:48:35.741Z,9.10
2022-10-13T10:51:08.683Z,12.57
2022-10-13T10:53:43.711Z,10.00
2022-10-13T10:56:20.634Z,11.77
2022-10-13T10:58:55.201Z,8.83
2022-10-13T11:01:34.278Z,9.37
2022-10-13T11:04:35.677Z,10.97
2022-10-13T11:07:05.680Z,11.70
2022-10-13T11:10:02.405Z,10.57
2022-10-13T11:12:49.568Z,12.53
2022-10-13T11:15:24.841Z,8.17
2022-10-13T11:17:53.293Z,12.30
2022-10-13T11:20:50.103Z,9.13
2022-10-13T11:23:34.200Z,10.10
2022-10-13T11:26:39.523Z,8.87
2022-10-13T11:29:18.055Z,9.33
2022-10-13T11:31:54.597Z,10.13
2022-10-13T11:34:29.380Z,12.30
2022-10-13T11:36:59.136Z,13.70
2022-10-13T11:40:00.405Z,9.93
2022-10-13T11:42:45.774Z,9.63
2022-10-13T11:45:25.705Z,9.70
2022-10-13T11:48:28.171Z,9.40
2022-10-13T11:51:10.336Z,10.43
2022-10-13T11:53:50.976Z,12.90
2022-10-13T11:56:33.864Z,8.73
2022-10-13T11:59:01.801Z,10.00
2022-10-13T12:01:29.765Z,8.87
2022-10-13T12:03:57.663Z,9.73
2022-10-13T12:06:34.355Z,9.27
2022-10-13T12:09:05.419Z,6.27
2022-10-13T12:11:38.329Z,9.73
2022-10-13T12:14:09.182Z,6.67
2022-10-13T12:16:37.079Z,7.20
2022-10-13T12:19:10.159Z,5.23
2022-10-13T12:21:51.194Z,6.57
2022-10-13T12:24:19.134Z,10.40
2022-10-13T12:26:48.378Z,7.05
2022-10-13T12:29:17.250Z,11.73
2022-10-13T12:31:47.279Z,7.43
2022-10-13T12:34:27.456Z,6.87
2022-10-13T12:36:59.393Z,8.97
2022-10-13T12:39:29.112Z,9.23
2022-10-13T12:42:00.455Z,7.70
2022-10-13T12:44:31.146Z,8.37
2022-10-13T12:47:00.450Z,8.47
2022-10-13T12:49:30.042Z,10.10
2022-10-13T12:52:08.034Z,7.57
2022-10-13T12:54:38.360Z,9.07
2022-10-13T12:57:18.616Z,15.07
2022-10-13T12:59:46.707Z,13.13
2022-10-13T13:02:22.813Z,13.07
2022-10-13T13:04:50.952Z,11.30
2022-10-13T13:07:33.172Z,10.93
2022-10-13T13:10:03.419Z,7.70
2022-10-13T13:12:32.678Z,8.60
2022-10-13T13:15:20.406Z,12.33
2022-10-13T13:18:03.805Z,14.80
2022-10-13T13:20:34.674Z,12.30
2022-10-13T13:23:02.940Z,8.70
2022-10-13T13:25:30.842Z,8.67
2022-10-13T13:28:00.071Z,9.00
2022-10-13T13:30:28.001Z,9.17
2022-10-13T13:32:55.903Z,7.40
2022-10-13T13:35:23.809Z,9.93
2022-10-13T13:37:53.004Z,9.33
2022-10-13T13:40:23.361Z,11.57
2022-10-13T13:42:51.773Z,8.87
2022-10-13T13:45:24.024Z,11.77
2022-10-13T13:47:52.188Z,8.87
2022-10-13T13:50:23.140Z,9.30
2022-10-13T13:52:51.152Z,14.30
2022-10-13T13:55:19.308Z,10.70
2022-10-13T13:57:47.237Z,11.60
2022-10-13T14:00:16.341Z,10.60
2022-10-13T14:02:45.992Z,8.27
2022-10-13T14:05:14.501Z,14.60
2022-10-13T14:07:42.858Z,10.57
2022-10-13T14:10:11.730Z,7.13
2022-10-13T14:12:39.819Z,10.03
2022-10-13T14:15:08.992Z,12.57
2022-10-13T14:17:37.141Z,10.97
2022-10-13T14:20:07.638Z,10.77
2022-10-13T14:22:37.741Z,11.17
2022-10-13T14:25:06.549Z,11.20
2022-10-13T14:27:35.024Z,9.07
2022-10-13T14:30:03.037Z,15.83
2022-10-13T14:32:31.089Z,11.80
2022-10-13T14:34:58.986Z,10.83
2022-10-13T14:37:33.022Z,11.70
2022-10-13T14:40:01.643Z,7.70
2022-10-13T14:42:29.600Z,11.00
2022-10-13T14:44:57.449Z,12.03
2022-10-13T14:47:25.393Z,10.77
2022-10-13T14:49:53.339Z,16.90
2022-10-13T14:52:21.256Z,14.40
2022-10-13T14:54:50.724Z,11.83
2022-10-13T14:57:19.489Z,11.43
2022-10-13T14:59:48.017Z,10.90
2022-10-13T15:02:17.324Z,16.77
2022-10-13T15:04:45.221Z,10.43
2022-10-13T15:07:13.069Z,11.93
2022-10-13T15:09:52.895Z,16.97
2022-10-13T15:12:30.228Z,10.13
2022-10-13T15:14:58.196Z,10.67
2022-10-13T15:17:26.059Z,8.83
2022-10-13T15:19:53.995Z,12.37
2022-10-13T15:22:22.137Z,9.43
2022-10-13T15:24:50.278Z,9.63
2022-10-13T15:27:18.190Z,11.23
2022-10-13T15:29:47.480Z,8.23
2022-10-13T15:32:18.138Z,9.17
2022-10-13T15:34:46.612Z,10.03
2022-10-13T15:37:14.744Z,8.53
2022-10-13T15:39:42.606Z,13.20
2022-10-13T15:42:12.294Z,8.77
2022-10-13T15:44:57.362Z,6.77
2022-10-13T15:47:48.018Z,11.47
2022-10-13T15:50:39.356Z,7.30
2022-10-13T15:53:27.956Z,8.77
2022-10-13T15:56:16.612Z,10.03
2022-10-13T15:59:05.122Z,17.57
2022-10-13T16:01:53.385Z,9.67
2022-10-13T16:04:42.938Z,10.03
2022-10-13T16:07:31.198Z,10.27
2022-10-13T16:10:19.760Z,8.50
2022-10-13T16:13:08.294Z,11.27
2022-10-13T16:15:59.954Z,9.77
2022-10-13T16:18:30.735Z,11.83
2022-10-13T16:21:00.062Z,8.90
2022-10-13T16:23:28.004Z,11.77
2022-10-13T16:25:55.875Z,10.23
2022-10-13T16:28:23.770Z,15.40
2022-10-13T16:30:51.666Z,10.97
2022-10-13T16:33:19.545Z,8.70
2022-10-13T16:35:47.441Z,12.83
2022-10-13T16:38:16.682Z,12.43
2022-10-13T16:40:44.540Z,12.37
2022-10-13T16:43:12.442Z,9.27
2022-10-13T16:45:59.163Z,11.80
2022-10-13T16:48:28.366Z,8.53
2022-10-13T16:50:56.285Z,11.53
2022-10-13T16:53:25.718Z,9.40
2022-10-13T16:55:53.604Z,9.30
2022-10-13T16:58:21.509Z,8.73
2022-10-13T17:00:49.414Z,8.13
2022-10-13T17:03:17.415Z,9.93
2022-10-13T17:05:45.264Z,8.03
2022-10-13T17:08:13.143Z,11.90
2022-10-13T17:10:42.407Z,11.20
2022-10-13T17:13:10.351Z,10.83
2022-10-13T17:15:38.265Z,9.37
2022-10-13T17:18:06.957Z,13.20
2022-10-13T17:20:34.967Z,11.00
2022-10-13T17:23:02.876Z,10.17
2022-10-13T17:25:30.783Z,13.80
2022-10-13T17:28:00.104Z,8.60
2022-10-13T17:30:28.037Z,9.63
2022-10-13T17:32:57.135Z,9.93
2022-10-13T17:35:27.496Z,8.17
2022-10-13T17:37:55.663Z,9.97
2022-10-13T17:40:23.647Z,10.90
2022-10-13T17:42:51.534Z,12.27
2022-10-13T17:45:21.359Z,11.67
2022-10-13T17:47:49.908Z,9.87
2022-10-13T17:50:18.716Z,10.80
2022-10-13T17:52:46.703Z,12.67
2022-10-13T17:55:14.862Z,12.07
2022-10-13T17:57:42.901Z,10.83
2022-10-13T18:00:12.067Z,13.30
2022-10-13T18:02:41.379Z,13.40
2022-10-13T18:05:09.693Z,8.73
2022-10-13T18:07:37.704Z,7.20
2022-10-13T18:10:06.502Z,6.90
2022-10-13T18:12:34.462Z,9.33
2022-10-13T18:15:03.785Z,8.00
2022-10-13T18:17:31.812Z,8.37
2022-10-13T18:20:01.097Z,10.07
2022-10-13T18:22:29.169Z,7.37
2022-10-13T18:24:57.397Z,7.60
2022-10-13T18:27:25.460Z,7.50
2022-10-13T18:29:53.412Z,6.80
2022-10-13T18:32:21.310Z,10.50
2022-10-13T18:34:49.358Z,8.17
2022-10-13T18:37:18.871Z,7.67
2022-10-13T18:39:48.115Z,9.03
2022-10-13T18:42:16.188Z,9.77
2022-10-13T18:44:44.096Z,9.10
2022-10-13T18:47:12.146Z,8.53
2022-10-13T18:49:40.028Z,10.67
2022-10-13T18:52:07.976Z,11.30
2022-10-13T18:54:37.328Z,9.17
2022-10-13T18:57:05.490Z,10.67
2022-10-13T18:59:36.699Z,7.27
2022-10-13T19:02:04.707Z,6.20
2022-10-13T19:04:32.693Z,10.70
2022-10-13T19:07:00.894Z,7.80
2022-10-13T19:09:30.196Z,5.33
2022-10-13T19:11:59.515Z,6.53
2022-10-13T19:14:27.520Z,7.57
2022-10-13T19:16:59.484Z,9.00
2022-10-13T19:19:29.868Z,7.27
2022-10-13T19:21:57.893Z,7.93
2022-10-13T19:24:25.811Z,6.07
2022-10-13T19:26:53.709Z,9.83
2022-10-13T19:29:23.215Z,6.17
2022-10-13T19:31:51.193Z,6.70
2022-10-13T19:34:19.137Z,6.17
2022-10-13T19:36:48.112Z,13.13
2022-10-13T19:39:18.352Z,7.23
2022-10-13T19:41:47.757Z,5.20
2022-10-13T19:44:16.568Z,4.20
2022-10-13T19:46:46.807Z,6.57
2022-10-13T19:49:16.568Z,4.13
2022-10-13T19:51:44.795Z,6.67
2022-10-13T19:54:13.558Z,5.27
2022-10-13T19:56:41.465Z,5.30
2022-10-13T19:59:09.369Z,4.43
2022-10-13T20:01:39.853Z,3.93
2022-10-13T20:04:10.083Z,4.23
2022-10-13T20:06:38.490Z,5.40
2022-10-13T20:09:06.500Z,5.63
2022-10-13T20:11:34.575Z,7.37
2022-10-13T20:14:02.630Z,4.73
2022-10-13T20:16:30.746Z,4.67
2022-10-13T20:19:00.950Z,4.30
2022-10-13T20:21:31.999Z,5.27
2022-10-13T20:24:00.264Z,8.00
2022-10-13T20:26:28.490Z,3.67
2022-10-13T20:28:58.067Z,5.30
2022-10-13T20:31:27.053Z,7.03
2022-10-13T20:33:56.313Z,5.13
2022-10-13T20:36:26.538Z,4.87
2022-10-13T20:38:56.439Z,5.20
2022-10-13T20:41:26.271Z,4.20
2022-10-13T20:43:56.682Z,6.83
2022-10-13T20:46:25.481Z,5.93
2022-10-13T20:49:11.926Z,7.00
2022-10-13T20:51:41.901Z,8.77
2022-10-13T20:54:12.249Z,8.33
2022-10-13T20:56:40.292Z,5.33
2022-10-13T20:59:10.403Z,6.13
2022-10-13T21:01:39.038Z,5.13
2022-10-13T21:04:07.147Z,5.83
2022-10-13T21:06:36.019Z,7.87
2022-10-13T21:09:05.023Z,4.43
2022-10-13T21:11:34.762Z,5.90
2022-10-13T21:14:06.379Z,7.90
2022-10-13T21:16:35.097Z,5.03
2022-10-13T21:19:03.694Z,7.00
2022-10-13T21:21:33.531Z,5.33
2022-10-13T21:24:03.496Z,3.90
2022-10-13T21:26:32.933Z,4.93
2022-10-13T21:29:03.680Z,7.10
2022-10-13T21:31:31.906Z,5.73
2022-10-13T21:33:59.920Z,6.30
2022-10-13T21:36:29.833Z,6.50
2022-10-13T21:38:59.568Z,4.60
2022-10-13T21:41:28.554Z,4.57
2022-10-13T21:43:56.922Z,4.27
2022-10-13T21:46:28.272Z,5.13
2022-10-13T21:48:58.395Z,5.37
2022-10-13T21:51:29.271Z,5.40
2022-10-13T21:53:58.790Z,5.43
2022-10-13T21:56:27.901Z,6.57
2022-10-13T21:58:56.232Z,4.03
2022-10-13T22:01:26.073Z,7.47
2022-10-13T22:03:56.214Z,6.43
2022-10-13T22:06:24.981Z,9.17
2022-10-13T22:08:54.480Z,7.97
2022-10-13T22:11:23.905Z,5.30
2022-10-13T22:13:52.233Z,5.50
2022-10-13T22:16:22.321Z,5.23
2022-10-13T22:18:52.824Z,4.77
2022-10-13T22:21:22.625Z,4.20
2022-10-13T22:23:50.547Z,5.00
2022-10-13T22:26:20.031Z,5.20
2022-10-13T22:28:51.470Z,3.63
2022-10-13T22:31:19.848Z,6.37
2022-10-13T22:33:53.467Z,6.33
2022-10-13T22:36:24.587Z,7.37
2022-10-13T22:38:54.166Z,7.07
2022-10-13T22:41:22.801Z,5.33
2022-10-13T22:43:51.218Z,5.50
2022-10-13T22:46:21.048Z,7.27
2022-10-13T22:48:49.543Z,5.60
2022-10-13T22:51:19.630Z,7.43
2022-10-13T22:53:50.194Z,6.10
2022-10-13T22:56:20.449Z,4.27
2022-10-13T22:58:50.854Z,5.47
2022-10-13T23:01:19.481Z,6.07
2022-10-13T23:03:49.133Z,10.00
2022-10-13T23:06:18.922Z,5.63
2022-10-13T23:08:48.289Z,5.17
2022-10-13T23:11:16.376Z,7.20
2022-10-13T23:13:44.468Z,5.67
2022-10-13T23:16:14.854Z,6.87
2022-10-13T23:18:43.158Z,5.53
2022-10-13T23:21:14.113Z,6.67
2022-10-13T23:23:42.265Z,7.00
2022-10-13T23:26:14.578Z,5.20
2022-10-13T23:28:43.288Z,6.03
2022-10-13T23:31:14.950Z,6.93
2022-10-13T23:33:43.504Z,5.07
2022-10-13T23:36:15.928Z,5.13
2022-10-13T23:38:44.243Z,8.23
2022-10-13T23:41:15.783Z,4.37
2022-10-13T23:43:44.291Z,6.50
2022-10-13T23:46:12.678Z,8.97
2022-10-13T23:48:40.889Z,9.40
2022-10-13T23:51:10.871Z,6.20
2022-10-13T23:53:39.587Z,6.13
2022-10-13T23:56:08.891Z,8.00
2022-10-13T23:58:39.580Z,5.10
